Time;durP1;ratioP1;P1;durP2;ratioP2;P2;SDS_P1;SDS_P2;PMS_P1;PMS_P2;Temp;Humidity;BMP_temperature;BMP_pressure;BME280_temperature;BME280_humidity;BME280_pressure;Samples;Min_cycle;Max_cycle;Signal;HPM_P1;HPM_P2
2021/11/05 00:03:18;;;;;;;2.10;1.30;;;;;;;7.13;68.89;98630.83;465291;1182;141003;-71
2021/11/05 00:13:21;;;;;;;2.70;1.40;;;;;;;7.12;68.80;98643.32;478028;1189;141349;-62
2021/11/05 00:23:25;;;;;;;2.00;1.40;;;;;;;7.10;68.62;98652.96;464330;1189;141207;-61
2021/11/05 00:33:29;;;;;;;3.40;1.60;;;;;;;7.11;68.54;98671.92;462501;1189;140596;-68
2021/11/05 00:43:33;;;;;;;1.70;1.10;;;;;;;7.09;68.24;98684.55;464655;1189;140458;-69
2021/11/05 00:53:37;;;;;;;1.30;1.20;;;;;;;7.11;68.13;98696.46;476938;1189;140705;-69
2021/11/05 01:03:40;;;;;;;1.30;1.10;;;;;;;7.14;68.04;98701.64;477799;1189;140877;-70
2021/11/05 01:13:44;;;;;;;2.10;1.80;;;;;;;7.19;67.82;98709.67;477804;1189;140925;-71
2021/11/05 01:23:48;;;;;;;1.80;1.60;;;;;;;7.22;67.72;98712.63;471225;1191;140527;-69
2021/11/05 01:33:52;;;;;;;1.50;1.10;;;;;;;7.22;67.62;98715.60;475316;1190;140778;-70
2021/11/05 01:43:55;;;;;;;2.90;1.30;;;;;;;7.21;67.61;98733.91;477763;1189;140068;-70
2021/11/05 01:53:59;;;;;;;1.10;1.00;;;;;;;7.24;67.58;98751.70;469981;1190;139964;-67
2021/11/05 02:04:03;;;;;;;3.70;1.20;;;;;;;7.26;67.25;98757.96;474111;1189;140691;-69
2021/11/05 02:14:11;;;;;;;2.40;1.60;;;;;;;7.32;67.21;98764.43;477456;1190;140245;-69
2021/11/05 02:24:17;;;;;;;1.30;1.10;;;;;;;7.31;67.17;98770.02;476881;1190;140455;-70
2021/11/05 02:34:20;;;;;;;2.80;1.70;;;;;;;7.33;66.84;98789.39;478277;1189;140510;-70
2021/11/05 02:44:24;;;;;;;2.80;1.30;;;;;;;7.36;66.79;98787.50;473264;1189;140493;-68
2021/11/05 02:54:28;;;;;;;1.30;1.20;;;;;;;7.37;66.58;98803.44;471569;1189;140115;-68
2021/11/05 03:04:31;;;;;;;1.60;1.30;;;;;;;7.36;66.34;98813.39;478019;1189;140654;-69
2021/11/05 03:14:35;;;;;;;1.20;1.10;;;;;;;7.34;66.47;98828.71;468638;1189;140724;-69
2021/11/05 03:24:38;;;;;;;1.60;1.50;;;;;;;7.30;66.46;98839.20;477735;1189;139782;-69
2021/11/05 03:34:41;;;;;;;2.30;1.90;;;;;;;7.26;66.45;98858.23;477741;1189;140809;-69
2021/11/05 03:44:45;;;;;;;1.50;1.40;;;;;;;7.25;66.45;98871.21;476949;1189;140809;-69
2021/11/05 03:54:49;;;;;;;1.70;1.50;;;;;;;7.24;66.43;98879.07;473491;1189;140041;-69
2021/11/05 04:04:55;;;;;;;2.30;1.70;;;;;;;7.21;66.44;98887.81;477892;1189;142518;-70
2021/11/05 04:14:58;;;;;;;3.40;2.00;;;;;;;7.16;66.46;98888.98;465620;1189;139667;-70
2021/11/05 04:25:01;;;;;;;3.50;2.80;;;;;;;7.12;66.40;98898.45;477764;1189;140421;-70
2021/11/05 04:35:06;;;;;;;2.40;2.20;;;;;;;7.07;66.58;98916.15;477753;1189;140621;-69
2021/11/05 04:45:09;;;;;;;3.30;2.70;;;;;;;7.05;66.49;98938.56;475478;1189;140047;-70
2021/11/05 04:55:13;;;;;;;4.50;3.20;;;;;;;7.02;66.70;98956.66;475144;1189;140487;-69
2021/11/05 05:05:18;;;;;;;3.80;3.40;;;;;;;6.88;66.67;98957.64;476319;1189;139830;-70
2021/11/05 05:15:21;;;;;;;4.30;3.30;;;;;;;6.67;67.12;98967.71;474325;1189;139805;-68
2021/11/05 05:25:25;;;;;;;5.00;4.30;;;;;;;6.60;67.31;98984.46;474442;1183;141336;-70
2021/11/05 05:35:28;;;;;;;3.50;2.90;;;;;;;6.61;67.25;98998.89;477215;1189;139822;-69
2021/11/05 05:45:31;;;;;;;4.10;3.40;;;;;;;6.62;67.12;99009.42;472939;1189;141752;-68
2021/11/05 05:55:35;;;;;;;6.30;3.30;;;;;;;6.59;67.22;99020.34;464270;1190;140050;-68
2021/11/05 06:05:39;;;;;;;5.40;4.10;;;;;;;6.56;67.05;99031.82;474060;1190;140015;-69
2021/11/05 06:15:42;;;;;;;6.10;3.20;;;;;;;6.55;66.92;99047.71;471732;1190;139897;-68
2021/11/05 06:25:47;;;;;;;7.30;5.20;;;;;;;6.55;66.92;99069.09;477809;1189;140687;-69
2021/11/05 06:35:50;;;;;;;4.40;3.70;;;;;;;6.58;66.93;99085.61;477224;1189;140245;-68
2021/11/05 06:45:53;;;;;;;5.70;4.00;;;;;;;6.64;66.75;99106.88;471915;1189;141872;-68
2021/11/05 06:55:57;;;;;;;4.60;3.10;;;;;;;6.65;66.86;99125.23;471781;1189;140296;-69
2021/11/05 07:06:00;;;;;;;3.60;3.30;;;;;;;6.69;66.85;99139.45;477027;1189;140850;-68
2021/11/05 07:16:04;;;;;;;3.70;3.10;;;;;;;6.79;66.84;99148.85;469298;1190;139128;-69
2021/11/05 07:26:11;;;;;;;13.10;5.30;;;;;;;6.83;66.66;99162.04;467372;1190;139820;-68
2021/11/05 07:36:16;;;;;;;4.70;3.20;;;;;;;6.85;66.69;99180.86;461987;1190;139833;-68
2021/11/05 07:46:20;;;;;;;5.20;3.80;;;;;;;6.88;66.57;99187.10;464770;1190;139541;-68
2021/11/05 07:56:24;;;;;;;12.30;4.40;;;;;;;6.89;66.73;99203.06;463192;1189;140233;-68
2021/11/05 08:06:37;;;;;;;6.60;3.60;;;;;;;7.00;66.53;99215.54;470462;1189;140002;-62
2021/11/05 08:16:41;;;;;;;4.00;3.30;;;;;;;6.94;66.57;99235.88;466025;1189;141105;-71
2021/11/05 08:26:45;;;;;;;6.40;4.10;;;;;;;6.95;66.64;99249.02;465570;1190;140450;-65
2021/11/05 08:36:48;;;;;;;5.20;4.30;;;;;;;7.10;66.66;99265.63;463815;1190;140146;-65
2021/11/05 08:46:52;;;;;;;4.60;3.60;;;;;;;7.51;66.36;99281.68;466400;1190;140172;-67
2021/11/05 08:56:55;;;;;;;6.60;3.80;;;;;;;7.77;65.99;99305.48;469074;1189;139781;-67
2021/11/05 09:06:59;;;;;;;5.00;3.90;;;;;;;7.88;65.87;99327.52;469125;1177;141268;-62
2021/11/05 09:17:03;;;;;;;6.10;5.10;;;;;;;7.84;65.79;99330.73;471774;1190;140608;-65
2021/11/05 09:27:07;;;;;;;14.10;4.90;;;;;;;7.79;65.88;99352.39;476771;1190;141680;-62
2021/11/05 09:37:11;;;;;;;3.80;3.20;;;;;;;7.56;66.63;99379.45;477697;1190;141153;-62
2021/11/05 09:47:15;;;;;;;4.80;2.60;;;;;;;7.90;66.80;99375.54;471340;1189;141069;-62
2021/11/05 09:57:20;;;;;;;3.50;1.70;;;;;;;8.40;66.19;99400.23;462648;1190;10001742;-66
2021/11/05 10:07:23;;;;;;;1.80;1.70;;;;;;;8.42;66.13;99423.15;477862;1189;140571;-65
2021/11/05 10:17:27;;;;;;;1.90;1.50;;;;;;;8.29;66.62;99439.95;464152;1190;141831;-61
2021/11/05 10:27:31;;;;;;;1.30;0.90;;;;;;;8.04;67.06;99446.20;468449;1190;141439;-63
2021/11/05 10:37:37;;;;;;;8.10;1.70;;;;;;;7.98;67.70;99452.80;477757;1190;141861;-63
2021/11/05 10:48:26;;;;;;;5.30;2.50;;;;;;;7.99;67.80;99466.20;468133;1190;140607;-63
2021/11/05 10:58:57;;;;;;;2.30;1.70;;;;;;;7.80;68.18;99464.77;469281;1189;139854;-64
2021/11/05 11:09:06;;;;;;;2.20;1.90;;;;;;;7.68;68.50;99468.89;462000;1190;140759;-63
2021/11/05 11:19:11;;;;;;;3.30;1.20;;;;;;;7.60;69.27;99478.21;467508;1190;140871;-63
2021/11/05 11:29:17;;;;;;;7.60;1.80;;;;;;;7.71;69.78;99489.98;472167;1190;140260;-62
2021/11/05 11:39:22;;;;;;;3.70;1.90;;;;;;;7.75;69.95;99502.52;466274;1190;141166;-64
2021/11/05 11:49:43;;;;;;;2.20;2.00;;;;;;;7.73;71.05;99510.96;473378;1190;141417;-62
2021/11/05 12:00:01;;;;;;;2.70;2.50;;;;;;;7.49;72.00;99524.77;470699;1190;141143;-63
2021/11/05 12:10:24;;;;;;;5.30;2.90;;;;;;;7.37;72.95;99534.25;477757;1190;141448;-63
2021/11/05 12:20:30;;;;;;;4.40;4.00;;;;;;;7.21;73.55;99544.11;476871;1189;195294;-63
2021/11/05 12:30:33;;;;;;;4.20;3.80;;;;;;;7.16;74.28;99556.77;477923;1190;139967;-64
2021/11/05 12:40:47;;;;;;;4.50;4.00;;;;;;;7.34;74.45;99566.08;474638;1184;140509;-62
2021/11/05 12:50:51;;;;;;;5.40;4.80;;;;;;;7.58;74.24;99569.61;477719;1189;141766;-63
2021/11/05 13:00:56;;;;;;;5.50;4.40;;;;;;;7.73;74.05;99575.45;477835;1189;141317;-63
2021/11/05 13:11:04;;;;;;;6.20;4.40;;;;;;;7.89;73.65;99585.59;477775;1190;141623;-63
2021/11/05 13:21:16;;;;;;;5.60;3.90;;;;;;;7.92;73.28;99595.70;473369;1190;140945;-63
2021/11/05 13:31:21;;;;;;;8.60;4.30;;;;;;;7.95;72.88;99605.88;477879;1190;140867;-63
2021/11/05 13:41:28;;;;;;;7.20;4.30;;;;;;;7.94;72.31;99598.95;477888;1190;140951;-64
2021/11/05 13:51:35;;;;;;;5.20;4.00;;;;;;;7.98;72.11;99603.27;466970;1190;140215;-64
2021/11/05 14:01:42;;;;;;;11.20;3.90;;;;;;;8.21;71.39;99612.31;467594;1189;141454;-65
2021/11/05 14:11:49;;;;;;;3.90;3.00;;;;;;;8.21;70.91;99622.60;471577;1189;141303;-65
2021/11/05 14:21:59;;;;;;;3.10;2.20;;;;;;;8.01;70.74;99629.59;478133;1189;142328;-64
2021/11/05 14:32:05;;;;;;;3.90;2.10;;;;;;;7.76;70.57;99644.33;474900;1189;140700;-63
2021/11/05 14:42:20;;;;;;;3.60;2.00;;;;;;;7.70;70.69;99658.17;446320;1190;10048842;-63
2021/11/05 14:52:24;;;;;;;10.10;2.20;;;;;;;7.62;70.50;99671.84;465266;1189;140838;-65
2021/11/05 15:02:36;;;;;;;7.30;2.30;;;;;;;7.49;70.74;99681.01;466156;1189;140523;-62
2021/11/05 15:12:39;;;;;;;5.60;3.30;;;;;;;7.43;71.03;99699.27;478236;1189;140973;-64
2021/11/05 15:22:42;;;;;;;4.30;2.60;;;;;;;7.29;70.81;99713.67;473674;1189;141739;-66
2021/11/05 15:32:46;;;;;;;5.50;2.50;;;;;;;7.12;70.83;99729.61;467488;1189;140394;-64
2021/11/05 15:42:54;;;;;;;5.50;2.50;;;;;;;6.98;70.95;99744.02;468222;1189;10001769;-69
2021/11/05 15:52:59;;;;;;;9.10;3.50;;;;;;;6.90;71.27;99762.35;472707;1189;140706;-68
2021/11/05 16:03:04;;;;;;;2.60;2.40;;;;;;;6.84;71.54;99777.89;467083;1189;140601;-63
2021/11/05 16:13:08;;;;;;;7.80;2.90;;;;;;;6.55;71.75;99794.86;474355;1189;141164;-67
2021/11/05 16:23:11;;;;;;;5.50;2.60;;;;;;;6.22;72.31;99807.56;478077;1189;140572;-60
2021/11/05 16:33:14;;;;;;;5.00;3.80;;;;;;;6.13;72.79;99823.05;471683;1189;142300;-60
2021/11/05 16:43:17;;;;;;;4.90;3.50;;;;;;;6.07;72.91;99828.89;461404;1190;140907;-62
2021/11/05 16:53:21;;;;;;;10.40;6.40;;;;;;;5.98;73.33;99835.63;460889;1189;140435;-60
2021/11/05 17:03:24;;;;;;;5.50;3.80;;;;;;;5.85;73.73;99848.64;477190;1189;142027;-62
2021/11/05 17:13:27;;;;;;;6.90;5.30;;;;;;;5.77;74.28;99856.27;472904;1189;140140;-62
2021/11/05 17:23:31;;;;;;;6.50;4.70;;;;;;;5.72;74.71;99861.68;468649;1179;141813;-61
2021/11/05 17:33:35;;;;;;;12.70;7.70;;;;;;;5.68;75.23;99872.25;462250;1189;140327;-64
2021/11/05 17:43:38;;;;;;;8.40;5.60;;;;;;;5.65;75.54;99881.24;464961;1189;140901;-64
2021/11/05 17:53:42;;;;;;;8.00;5.60;;;;;;;5.64;75.92;99892.75;473474;1189;141184;-60
2021/11/05 18:03:45;;;;;;;8.10;6.10;;;;;;;5.67;76.17;99900.11;468287;1189;141572;-62
2021/11/05 18:13:49;;;;;;;6.00;5.40;;;;;;;5.67;76.58;99907.23;477758;1189;141015;-61
2021/11/05 18:23:53;;;;;;;8.30;7.40;;;;;;;5.64;76.97;99911.16;476956;1189;140312;-59
2021/11/05 18:33:57;;;;;;;7.00;6.30;;;;;;;5.58;77.19;99919.20;471728;1190;141334;-60
2021/11/05 18:44:00;;;;;;;7.30;6.50;;;;;;;5.57;77.63;99930.35;470845;1190;140622;-64
2021/11/05 18:54:04;;;;;;;8.40;6.70;;;;;;;5.55;77.76;99938.41;471204;1182;140572;-66
2021/11/05 19:04:11;;;;;;;7.80;7.00;;;;;;;5.50;78.29;99941.71;477767;1189;140786;-67
2021/11/05 19:14:15;;;;;;;8.10;7.30;;;;;;;5.53;78.41;99954.28;465287;1189;141644;-65
2021/11/05 19:24:19;;;;;;;8.20;7.30;;;;;;;5.60;78.47;99958.55;471548;1189;141675;-68
2021/11/05 19:34:26;;;;;;;8.80;7.50;;;;;;;5.64;78.62;99964.46;476769;1189;142390;-66
2021/11/05 19:44:30;;;;;;;8.50;7.70;;;;;;;5.68;78.55;99977.37;468908;1189;10001255;-66
2021/11/05 19:54:35;;;;;;;9.40;8.30;;;;;;;5.72;78.62;99994.55;474693;1189;142167;-63
2021/11/05 20:04:39;;;;;;;11.50;9.20;;;;;;;5.79;78.74;100009.44;468175;1190;140161;-66
2021/11/05 20:14:42;;;;;;;9.40;8.50;;;;;;;5.85;78.67;100021.38;469120;1189;145987;-65
2021/11/05 20:24:45;;;;;;;11.10;9.90;;;;;;;5.91;78.71;100045.46;461169;1189;141222;-66
2021/11/05 20:34:53;;;;;;;11.50;9.60;;;;;;;5.90;78.52;100052.64;469923;1189;144624;-65
2021/11/05 20:44:56;;;;;;;13.00;9.90;;;;;;;5.87;78.54;100057.44;461237;1189;140639;-67
2021/11/05 20:54:59;;;;;;;12.10;10.20;;;;;;;5.82;78.43;100060.21;473767;1189;141947;-65
2021/11/05 21:05:06;;;;;;;12.80;9.60;;;;;;;5.77;78.40;100062.49;464755;1189;142627;-68
2021/11/05 21:15:10;;;;;;;15.20;12.50;;;;;;;5.68;78.31;100061.26;469990;1189;141406;-68
2021/11/05 21:25:14;;;;;;;10.40;9.40;;;;;;;5.61;78.46;100068.11;465694;1189;141772;-68
2021/11/05 21:35:18;;;;;;;9.60;8.60;;;;;;;5.59;78.24;100068.86;477796;1189;145267;-68
2021/11/05 21:45:22;;;;;;;10.80;9.40;;;;;;;5.57;78.27;100076.40;477042;1189;140776;-68
2021/11/05 21:55:25;;;;;;;11.40;9.70;;;;;;;5.57;78.48;100089.06;478790;1189;140937;-68
2021/11/05 22:05:30;;;;;;;9.60;7.80;;;;;;;5.59;78.42;100092.83;473007;1189;140997;-65
2021/11/05 22:15:33;;;;;;;12.10;9.20;;;;;;;5.60;78.42;100098.34;463654;1189;141102;-64
2021/11/05 22:25:37;;;;;;;11.20;8.90;;;;;;;5.69;78.64;100106.90;477879;1189;142155;-65
2021/11/05 22:35:40;;;;;;;9.50;8.40;;;;;;;5.87;78.62;100115.65;477333;1189;141952;-66
2021/11/05 22:45:44;;;;;;;11.20;9.10;;;;;;;6.01;78.57;100126.45;477899;1190;141128;-65
2021/11/05 22:55:49;;;;;;;12.10;9.80;;;;;;;6.04;78.56;100133.30;477925;1189;142805;-65
2021/11/05 23:05:53;;;;;;;10.50;8.90;;;;;;;6.13;78.62;100133.52;477397;1189;141898;-66
2021/11/05 23:16:00;;;;;;;12.00;10.10;;;;;;;6.20;78.62;100143.19;471547;1190;142487;-65
2021/11/05 23:26:04;;;;;;;13.20;11.40;;;;;;;6.16;78.65;100146.63;468212;1190;142259;-65
2021/11/05 23:36:08;;;;;;;12.90;11.50;;;;;;;6.18;78.67;100157.31;476993;1183;142401;-65
2021/11/05 23:46:11;;;;;;;12.40;11.20;;;;;;;6.15;78.73;100169.23;470214;1190;141521;-66
2021/11/05 23:56:15;;;;;;;13.40;11.50;;;;;;;6.14;78.71;100180.23;477836;1190;142619;-67
